createdAt,value
2023-04-26T00:01:11.405Z,95174.09
2023-04-26T00:03:40.459Z,95163.94
2023-04-26T00:06:10.071Z,95170.31
2023-04-26T00:08:36.704Z,95166.03
2023-04-26T00:11:03.486Z,95170.09
2023-04-26T00:13:30.201Z,95169.81
2023-04-26T00:15:56.767Z,95167.19
2023-04-26T00:18:23.675Z,95165.38
2023-04-26T00:20:50.439Z,95163.09
2023-04-26T00:23:17.301Z,95169.97
2023-04-26T00:25:43.964Z,95165.00
2023-04-26T00:28:10.581Z,95161.41
2023-04-26T00:30:41.111Z,95162.41
2023-04-26T00:33:09.339Z,95161.91
2023-04-26T00:35:35.863Z,95170.31
2023-04-26T00:38:02.373Z,95165.38
2023-04-26T00:40:30.657Z,95162.13
2023-04-26T00:43:00.392Z,95164.22
2023-04-26T00:45:27.447Z,95173.41
2023-04-26T00:47:54.456Z,95167.69
2023-04-26T00:50:21.376Z,95170.44
2023-04-26T00:52:48.193Z,95173.88
2023-04-26T00:55:16.215Z,95174.31
2023-04-26T00:57:45.248Z,95175.00
2023-04-26T01:00:12.438Z,95174.88
2023-04-26T01:02:39.123Z,95174.63
2023-04-26T01:05:06.942Z,95177.34
2023-04-26T01:07:34.314Z,95179.63
2023-04-26T01:10:05.549Z,95185.00
2023-04-26T01:12:33.069Z,95180.97
2023-04-26T01:15:00.209Z,95182.06
2023-04-26T01:17:26.844Z,95178.31
2023-04-26T01:19:56.893Z,95185.38
2023-04-26T01:22:23.437Z,95176.84
2023-04-26T01:24:51.559Z,95176.38
2023-04-26T01:27:18.263Z,95179.31
2023-04-26T01:29:46.071Z,95174.53
2023-04-26T01:32:12.627Z,95184.03
2023-04-26T01:34:39.225Z,95185.94
2023-04-26T01:37:07.651Z,95180.88
2023-04-26T01:39:34.913Z,95177.97
2023-04-26T01:42:02.871Z,95182.78
2023-04-26T01:44:31.940Z,95188.28
2023-04-26T01:47:00.978Z,95185.81
2023-04-26T01:49:27.550Z,95188.84
2023-04-26T01:51:55.448Z,95192.63
2023-04-26T01:54:23.825Z,95196.56
2023-04-26T01:56:50.480Z,95191.31
2023-04-26T01:59:17.062Z,95197.91
2023-04-26T02:01:43.696Z,95196.06
2023-04-26T02:04:10.854Z,95205.50
2023-04-26T02:06:42.175Z,95200.66
2023-04-26T02:09:11.612Z,95200.31
2023-04-26T02:11:40.504Z,95202.50
2023-04-26T02:14:07.157Z,95198.03
2023-04-26T02:16:33.684Z,95186.91
2023-04-26T02:19:00.306Z,95189.81
2023-04-26T02:21:28.373Z,95191.59
2023-04-26T02:23:54.969Z,95180.66
2023-04-26T02:26:21.504Z,95178.13
2023-04-26T02:28:48.032Z,95180.00
2023-04-26T02:31:14.912Z,95185.25
2023-04-26T02:33:41.716Z,95181.00
2023-04-26T02:36:09.106Z,95188.56
2023-04-26T02:38:36.421Z,95187.78
2023-04-26T02:41:04.656Z,95174.75
2023-04-26T02:43:31.693Z,95173.88
2023-04-26T02:46:01.599Z,95178.06
2023-04-26T02:48:29.717Z,95179.16
2023-04-26T02:50:57.230Z,95178.16
2023-04-26T02:53:23.884Z,95176.72
2023-04-26T02:55:51.183Z,95173.19
2023-04-26T02:58:18.255Z,95172.13
2023-04-26T03:00:48.319Z,95171.31
2023-04-26T03:03:15.545Z,95173.09
2023-04-26T03:05:42.384Z,95180.53
2023-04-26T03:08:09.169Z,95177.16
2023-04-26T03:10:35.725Z,95181.97
2023-04-26T03:13:03.732Z,95187.06
2023-04-26T03:15:30.510Z,95183.06
2023-04-26T03:18:00.853Z,95178.44
2023-04-26T03:20:27.697Z,95180.31
2023-04-26T03:22:54.579Z,95183.94
2023-04-26T03:25:21.389Z,95180.56
2023-04-26T03:27:47.913Z,95184.34
2023-04-26T03:30:15.046Z,95178.16
2023-04-26T03:32:43.939Z,95185.72
2023-04-26T03:35:10.634Z,95192.47
2023-04-26T03:37:39.722Z,95189.81
2023-04-26T03:40:09.847Z,95188.22
2023-04-26T03:42:37.114Z,95196.59
2023-04-26T03:45:04.521Z,95194.03
2023-04-26T03:47:31.591Z,95196.84
2023-04-26T03:49:58.361Z,95198.28
2023-04-26T03:52:25.329Z,95193.72
2023-04-26T03:54:52.087Z,95195.38
2023-04-26T03:57:18.696Z,95197.38
2023-04-26T03:59:45.269Z,95193.94
2023-04-26T04:02:11.871Z,95197.63
2023-04-26T04:04:38.616Z,95193.25
2023-04-26T04:07:05.699Z,95195.88
2023-04-26T04:09:33.593Z,95191.06
2023-04-26T04:12:00.250Z,95196.06
2023-04-26T04:14:26.879Z,95196.25
2023-04-26T04:16:53.396Z,95202.38
2023-04-26T04:19:20.050Z,95201.53
2023-04-26T04:21:47.305Z,95208.44
2023-04-26T04:24:13.892Z,95206.19
2023-04-26T04:26:40.450Z,95203.13
2023-04-26T04:29:09.105Z,95211.91
2023-04-26T04:31:37.237Z,95205.94
2023-04-26T04:34:04.104Z,95216.28
2023-04-26T04:36:31.241Z,95214.50
2023-04-26T04:38:58.153Z,95224.34
2023-04-26T04:41:24.710Z,95222.22
2023-04-26T04:43:51.455Z,95223.38
2023-04-26T04:46:18.083Z,95225.81
2023-04-26T04:48:44.976Z,95220.53
2023-04-26T04:51:11.930Z,95228.22
2023-04-26T04:53:38.648Z,95226.09
2023-04-26T04:56:05.998Z,95228.41
2023-04-26T04:58:32.571Z,95235.63
2023-04-26T05:01:01.158Z,95237.72
2023-04-26T05:03:30.116Z,95241.47
2023-04-26T05:05:57.227Z,95240.22
2023-04-26T05:08:24.687Z,95242.13
2023-04-26T05:10:51.784Z,95242.97
2023-04-26T05:13:18.352Z,95254.50
2023-04-26T05:15:44.951Z,95251.31
2023-04-26T05:18:11.489Z,95243.88
2023-04-26T05:20:38.976Z,95251.72
2023-04-26T05:23:05.555Z,95252.97
2023-04-26T05:25:32.127Z,95250.88
2023-04-26T05:28:12.442Z,95253.44
2023-04-26T05:30:50.528Z,95251.34
2023-04-26T05:33:33.949Z,95262.06
2023-04-26T05:36:13.630Z,95258.47
2023-04-26T05:38:41.311Z,95264.81
2023-04-26T05:41:07.878Z,95259.19
2023-04-26T05:43:34.619Z,95261.03
2023-04-26T05:46:02.052Z,95262.50
2023-04-26T05:48:29.817Z,95259.59
2023-04-26T05:50:56.358Z,95259.84
2023-04-26T05:53:22.955Z,95265.19
2023-04-26T05:55:49.533Z,95271.19
2023-04-26T05:58:16.120Z,95267.06
2023-04-26T06:00:42.994Z,95272.69
2023-04-26T06:03:09.771Z,95266.88
2023-04-26T06:05:41.148Z,95270.69
2023-04-26T06:08:08.020Z,95275.94
2023-04-26T06:10:36.376Z,95283.22
2023-04-26T06:13:03.482Z,95284.56
2023-04-26T06:15:33.992Z,95285.50
2023-04-26T06:18:00.656Z,95285.75
2023-04-26T06:20:28.234Z,95277.34
2023-04-26T06:22:54.804Z,95280.81
2023-04-26T06:25:21.445Z,95282.16
2023-04-26T06:27:48.196Z,95293.47
2023-04-26T06:30:14.909Z,95288.09
2023-04-26T06:32:45.883Z,95285.97
2023-04-26T06:35:12.607Z,95282.38
2023-04-26T06:37:39.604Z,95282.22
2023-04-26T06:40:08.099Z,95284.88
2023-04-26T06:42:34.707Z,95288.81
2023-04-26T06:45:17.027Z,95285.88
2023-04-26T06:47:44.788Z,95292.78
2023-04-26T06:50:11.610Z,95291.03
2023-04-26T06:52:38.780Z,95287.56
2023-04-26T06:55:05.704Z,95283.44
2023-04-26T06:57:32.361Z,95294.63
2023-04-26T06:59:58.870Z,95292.13
2023-04-26T07:02:25.711Z,95281.75
2023-04-26T07:04:52.818Z,95280.63
2023-04-26T07:07:19.583Z,95290.09
2023-04-26T07:09:46.184Z,95292.34
2023-04-26T07:12:13.255Z,95286.84
2023-04-26T07:14:41.265Z,95285.88
2023-04-26T07:17:07.813Z,95291.28
2023-04-26T07:19:34.413Z,95286.19
2023-04-26T07:22:01.448Z,95291.69
2023-04-26T07:24:28.111Z,95294.63
2023-04-26T07:26:54.682Z,95292.50
2023-04-26T07:29:21.292Z,95286.81
2023-04-26T07:31:48.513Z,95283.50
2023-04-26T07:34:15.014Z,95287.53
2023-04-26T07:36:41.555Z,95279.13
2023-04-26T07:39:10.255Z,95290.16
2023-04-26T07:41:36.883Z,95288.84
2023-04-26T07:44:04.172Z,95282.88
2023-04-26T07:46:30.712Z,95277.09
2023-04-26T07:48:57.372Z,95266.09
2023-04-26T07:51:23.918Z,95268.00
2023-04-26T07:53:50.800Z,95281.28
2023-04-26T07:56:17.777Z,95290.06
2023-04-26T07:58:44.375Z,95285.94
2023-04-26T08:01:11.791Z,95282.31
2023-04-26T08:03:39.553Z,95282.41
2023-04-26T08:06:06.559Z,95275.31
2023-04-26T08:08:33.543Z,95283.50
2023-04-26T08:11:00.482Z,95286.50
2023-04-26T08:13:29.091Z,95284.38
2023-04-26T08:15:55.949Z,95287.19
2023-04-26T08:18:22.493Z,95275.78
2023-04-26T08:20:49.036Z,95272.31
2023-04-26T08:23:15.676Z,95280.47
2023-04-26T08:25:42.276Z,95276.47
2023-04-26T08:28:08.824Z,95275.00
2023-04-26T08:30:35.503Z,95272.22
2023-04-26T08:33:03.283Z,95276.41
2023-04-26T08:35:29.915Z,95281.41
2023-04-26T08:37:57.040Z,95277.38
2023-04-26T08:40:25.060Z,95280.66
2023-04-26T08:42:52.643Z,95272.56
2023-04-26T08:45:20.547Z,95283.97
2023-04-26T08:47:52.910Z,95270.72
2023-04-26T08:50:21.408Z,95273.97
2023-04-26T08:52:51.346Z,95275.22
2023-04-26T08:55:22.292Z,95268.00
2023-04-26T08:57:50.649Z,95274.88
2023-04-26T09:00:19.607Z,95267.72
2023-04-26T09:02:49.237Z,95277.91
2023-04-26T09:05:16.093Z,95282.97
2023-04-26T09:07:48.757Z,95284.94
2023-04-26T09:10:22.165Z,95288.84
2023-04-26T09:12:55.980Z,95280.34
2023-04-26T09:15:23.976Z,95284.75
2023-04-26T09:17:51.784Z,95284.88
2023-04-26T09:20:24.384Z,95278.28
2023-04-26T09:22:53.162Z,95279.19
2023-04-26T09:25:28.037Z,95277.19
2023-04-26T09:27:54.738Z,95273.47
2023-04-26T09:30:22.172Z,95272.47
2023-04-26T09:32:59.771Z,95271.84
2023-04-26T09:35:36.435Z,95270.75
2023-04-26T09:38:12.200Z,95274.00
2023-04-26T09:40:42.983Z,95269.81
2023-04-26T09:43:11.986Z,95270.84
2023-04-26T09:45:58.986Z,95274.81
2023-04-26T09:48:28.730Z,95277.44
2023-04-26T09:50:57.993Z,95279.25
2023-04-26T09:53:34.646Z,95286.28
2023-04-26T09:56:13.696Z,95287.78
2023-04-26T09:59:05.599Z,95286.22
2023-04-26T10:01:34.847Z,95285.38
2023-04-26T10:04:02.374Z,95279.25
2023-04-26T10:06:29.310Z,95287.56
2023-04-26T10:08:56.631Z,95275.59
2023-04-26T10:11:23.759Z,95274.13
2023-04-26T10:13:51.196Z,95271.47
2023-04-26T10:16:18.740Z,95260.91
2023-04-26T10:18:45.301Z,95260.13
2023-04-26T10:21:19.851Z,95260.91
2023-04-26T10:23:48.768Z,95252.81
2023-04-26T10:26:52.706Z,95256.00
2023-04-26T10:29:20.811Z,95250.09
2023-04-26T10:32:02.782Z,95254.31
2023-04-26T10:34:31.273Z,95255.94
2023-04-26T10:37:12.538Z,95249.50
2023-04-26T10:39:41.047Z,95241.59
2023-04-26T10:42:26.519Z,95238.78
2023-04-26T10:44:58.240Z,95229.38
2023-04-26T10:47:28.482Z,95227.38
2023-04-26T10:50:20.430Z,95219.66
2023-04-26T10:53:03.652Z,95221.31
2023-04-26T10:55:42.531Z,95224.03
2023-04-26T10:58:28.742Z,95209.59
2023-04-26T11:01:21.194Z,95209.31
2023-04-26T11:03:57.482Z,95208.38
2023-04-26T11:06:47.253Z,95200.34
2023-04-26T11:09:33.136Z,95202.13
2023-04-26T11:11:59.984Z,95195.16
2023-04-26T11:14:26.576Z,95198.28
2023-04-26T11:16:53.227Z,95197.72
2023-04-26T11:19:19.824Z,95180.03
2023-04-26T11:21:46.765Z,95188.25
2023-04-26T11:24:16.008Z,95190.78
2023-04-26T11:26:42.802Z,95187.53
2023-04-26T11:29:13.323Z,95186.56
2023-04-26T11:31:39.888Z,95175.72
2023-04-26T11:34:06.553Z,95179.44
2023-04-26T11:36:33.128Z,95174.53
2023-04-26T11:39:02.501Z,95175.63
2023-04-26T11:41:29.168Z,95179.53
2023-04-26T11:43:56.094Z,95178.88
2023-04-26T11:46:24.121Z,95176.38
2023-04-26T11:48:51.776Z,95176.03
2023-04-26T11:51:19.153Z,95183.25
2023-04-26T11:53:45.783Z,95191.94
2023-04-26T11:56:17.181Z,95188.22
2023-04-26T11:58:48.651Z,95197.81
2023-04-26T12:01:29.956Z,95191.06
2023-04-26T12:03:59.141Z,95192.16
2023-04-26T12:06:46.551Z,95181.56
2023-04-26T12:09:13.498Z,95192.34
2023-04-26T12:11:40.086Z,95182.13
2023-04-26T12:14:08.099Z,95177.88
2023-04-26T12:16:38.072Z,95177.25
2023-04-26T12:19:08.944Z,95173.00
2023-04-26T12:21:42.841Z,95181.47
2023-04-26T12:24:21.138Z,95184.47
2023-04-26T12:26:48.782Z,95181.84
2023-04-26T12:29:15.474Z,95185.31
2023-04-26T12:31:42.775Z,95190.41
2023-04-26T12:34:09.692Z,95190.63
2023-04-26T12:36:36.326Z,95187.03
2023-04-26T12:39:05.229Z,95184.97
2023-04-26T12:41:32.113Z,95188.84
2023-04-26T12:43:58.747Z,95187.53
2023-04-26T12:46:26.059Z,95176.88
2023-04-26T12:48:53.109Z,95169.50
2023-04-26T12:51:19.952Z,95165.19
2023-04-26T12:53:46.510Z,95162.97
2023-04-26T12:56:13.120Z,95170.50
2023-04-26T12:58:39.637Z,95172.00
2023-04-26T13:01:06.554Z,95169.91
2023-04-26T13:03:33.350Z,95180.38
2023-04-26T13:06:00.041Z,95178.13
2023-04-26T13:08:26.659Z,95158.06
2023-04-26T13:10:53.216Z,95158.56
2023-04-26T13:13:22.039Z,95146.09
2023-04-26T13:15:53.145Z,95146.59
2023-04-26T13:18:19.755Z,95148.47
2023-04-26T13:20:46.293Z,95164.31
2023-04-26T13:23:12.820Z,95151.16
2023-04-26T13:25:39.461Z,95154.72
2023-04-26T13:28:05.974Z,95156.03
2023-04-26T13:30:32.979Z,95158.13
2023-04-26T13:33:00.329Z,95154.66
2023-04-26T13:35:27.265Z,95153.91
2023-04-26T13:37:53.864Z,95147.47
2023-04-26T13:40:22.104Z,95141.94
2023-04-26T13:42:48.700Z,95146.88
2023-04-26T13:45:16.988Z,95148.66
2023-04-26T13:47:45.060Z,95135.56
2023-04-26T13:50:11.732Z,95138.19
2023-04-26T13:52:38.598Z,95135.28
2023-04-26T13:55:06.419Z,95138.50
2023-04-26T13:57:33.423Z,95126.34
2023-04-26T14:00:00.535Z,95114.06
2023-04-26T14:02:30.247Z,95119.47
2023-04-26T14:04:57.692Z,95119.88
2023-04-26T14:07:26.316Z,95111.97
2023-04-26T14:09:53.686Z,95118.47
2023-04-26T14:12:20.569Z,95116.56
2023-04-26T14:14:47.883Z,95129.41
2023-04-26T14:17:14.533Z,95129.44
2023-04-26T14:19:42.035Z,95116.13
2023-04-26T14:22:12.572Z,95122.53
2023-04-26T14:24:39.418Z,95124.59
2023-04-26T14:27:05.952Z,95133.19
2023-04-26T14:29:32.524Z,95125.53
2023-04-26T14:31:59.211Z,95130.63
2023-04-26T14:34:26.274Z,95137.72
2023-04-26T14:36:52.830Z,95134.66
2023-04-26T14:39:19.493Z,95128.16
2023-04-26T14:41:46.359Z,95127.63
2023-04-26T14:44:16.328Z,95127.19
2023-04-26T14:46:43.002Z,95123.25
2023-04-26T14:49:09.736Z,95121.72
2023-04-26T14:51:36.617Z,95119.91
2023-04-26T14:54:03.508Z,95113.34
2023-04-26T14:56:34.227Z,95116.16
2023-04-26T14:59:01.619Z,95117.38
2023-04-26T15:01:28.248Z,95120.47
2023-04-26T15:03:56.440Z,95125.00
2023-04-26T15:06:24.477Z,95123.31
2023-04-26T15:08:53.930Z,95121.25
2023-04-26T15:11:20.998Z,95123.47
2023-04-26T15:13:47.556Z,95114.66
2023-04-26T15:16:14.127Z,95106.34
2023-04-26T15:18:40.697Z,95102.22
2023-04-26T15:21:07.248Z,95109.59
2023-04-26T15:23:33.774Z,95108.31
2023-04-26T15:26:04.303Z,95106.75
2023-04-26T15:28:31.093Z,95115.75
2023-04-26T15:31:05.610Z,95106.31
2023-04-26T15:33:32.469Z,95097.81
2023-04-26T15:35:59.028Z,95101.75
2023-04-26T15:38:26.075Z,95108.81
2023-04-26T15:40:53.831Z,95117.72
2023-04-26T15:43:20.722Z,95116.22
2023-04-26T15:45:48.869Z,95121.34
2023-04-26T15:48:15.783Z,95110.13
2023-04-26T15:50:42.510Z,95111.72
2023-04-26T15:53:09.249Z,95115.22
2023-04-26T15:55:35.817Z,95111.97
2023-04-26T15:58:02.422Z,95120.50
2023-04-26T16:00:29.098Z,95115.41
2023-04-26T16:02:55.877Z,95119.28
2023-04-26T16:05:22.622Z,95114.59
2023-04-26T16:07:49.177Z,95116.06
2023-04-26T16:10:16.317Z,95108.69
2023-04-26T16:12:44.365Z,95115.22
2023-04-26T16:15:11.120Z,95110.75
2023-04-26T16:17:38.105Z,95110.31
2023-04-26T16:20:06.791Z,95115.84
2023-04-26T16:22:34.483Z,95115.44
2023-04-26T16:25:01.565Z,95114.81
2023-04-26T16:27:28.088Z,95117.47
2023-04-26T16:29:55.797Z,95105.81
2023-04-26T16:32:22.584Z,95112.16
2023-04-26T16:34:49.166Z,95112.38
2023-04-26T16:37:15.694Z,95110.28
2023-04-26T16:39:42.227Z,95110.94
2023-04-26T16:42:08.788Z,95106.06
2023-04-26T16:44:35.360Z,95106.06
2023-04-26T16:47:02.201Z,95104.59
2023-04-26T16:49:28.727Z,95112.97
2023-04-26T16:51:58.913Z,95122.22
2023-04-26T16:54:26.224Z,95115.53
2023-04-26T16:56:52.983Z,95124.72
2023-04-26T16:59:19.666Z,95120.19
2023-04-26T17:01:47.225Z,95123.59
2023-04-26T17:04:13.980Z,95122.94
2023-04-26T17:06:40.725Z,95129.28
2023-04-26T17:09:08.529Z,95128.00
2023-04-26T17:11:37.134Z,95129.47
2023-04-26T17:14:04.310Z,95139.47
2023-04-26T17:16:31.151Z,95137.88
2023-04-26T17:18:58.216Z,95135.19
2023-04-26T17:21:24.751Z,95146.72
2023-04-26T17:23:51.328Z,95144.22
2023-04-26T17:26:17.948Z,95137.78
2023-04-26T17:28:44.528Z,95143.47
2023-04-26T17:31:11.162Z,95148.75
2023-04-26T17:33:37.753Z,95146.72
2023-04-26T17:36:04.768Z,95146.94
2023-04-26T17:38:31.325Z,95148.09
2023-04-26T17:40:59.313Z,95153.38
2023-04-26T17:43:25.938Z,95152.91
2023-04-26T17:45:52.549Z,95153.97
2023-04-26T17:48:19.208Z,95164.94
2023-04-26T17:50:46.004Z,95158.34
2023-04-26T17:53:12.618Z,95160.31
2023-04-26T17:55:39.126Z,95167.41
2023-04-26T17:58:05.708Z,95164.94
2023-04-26T18:00:32.218Z,95159.75
2023-04-26T18:02:59.534Z,95171.28
2023-04-26T18:05:26.326Z,95173.00
2023-04-26T18:07:52.902Z,95177.41
2023-04-26T18:10:19.659Z,95179.78
2023-04-26T18:12:46.252Z,95184.75
2023-04-26T18:15:13.818Z,95186.56
2023-04-26T18:17:41.181Z,95188.94
2023-04-26T18:20:08.425Z,95189.44
2023-04-26T18:22:34.976Z,95189.63
2023-04-26T18:25:01.522Z,95194.47
2023-04-26T18:27:28.071Z,95194.56
2023-04-26T18:29:54.633Z,95197.88
2023-04-26T18:32:21.224Z,95197.16
2023-04-26T18:34:47.985Z,95204.53
2023-04-26T18:37:14.541Z,95205.78
2023-04-26T18:39:41.262Z,95205.78
2023-04-26T18:42:07.872Z,95213.78
2023-04-26T18:44:34.411Z,95208.50
2023-04-26T18:47:00.965Z,95211.69
2023-04-26T18:49:27.506Z,95213.59
2023-04-26T18:51:54.211Z,95220.59
2023-04-26T18:54:20.912Z,95222.41
2023-04-26T18:56:47.500Z,95222.50
2023-04-26T18:59:14.046Z,95225.25
2023-04-26T19:01:41.084Z,95227.69
2023-04-26T19:04:08.973Z,95239.06
2023-04-26T19:06:35.786Z,95235.97
2023-04-26T19:09:02.565Z,95234.16
2023-04-26T19:11:29.128Z,95235.41
2023-04-26T19:13:55.765Z,95236.78
2023-04-26T19:16:22.407Z,95236.47
2023-04-26T19:18:49.138Z,95240.75
2023-04-26T19:21:16.251Z,95244.91
2023-04-26T19:23:44.371Z,95239.03
2023-04-26T19:26:12.738Z,95237.38
2023-04-26T19:28:39.573Z,95243.97
2023-04-26T19:31:06.695Z,95240.94
2023-04-26T19:33:33.526Z,95235.34
2023-04-26T19:36:00.022Z,95238.25
2023-04-26T19:38:26.544Z,95238.31
2023-04-26T19:40:53.361Z,95244.69
2023-04-26T19:43:20.776Z,95249.78
2023-04-26T19:45:47.663Z,95247.78
2023-04-26T19:48:14.424Z,95255.53
2023-04-26T19:50:42.232Z,95246.94
2023-04-26T19:53:09.902Z,95249.94
2023-04-26T19:55:37.873Z,95259.38
2023-04-26T19:58:05.351Z,95255.94
2023-04-26T20:00:35.444Z,95258.56
2023-04-26T20:03:02.905Z,95259.59
2023-04-26T20:05:29.855Z,95263.53
2023-04-26T20:07:59.258Z,95267.00
2023-04-26T20:10:25.948Z,95262.22
2023-04-26T20:12:53.240Z,95256.31
2023-04-26T20:15:19.953Z,95262.56
2023-04-26T20:17:46.576Z,95259.28
2023-04-26T20:20:13.257Z,95261.59
2023-04-26T20:22:40.657Z,95267.81
2023-04-26T20:25:07.684Z,95256.13
2023-04-26T20:27:34.217Z,95256.81
2023-04-26T20:30:01.057Z,95252.22
2023-04-26T20:32:27.875Z,95251.84
2023-04-26T20:34:54.414Z,95254.00
2023-04-26T20:37:21.765Z,95249.75
2023-04-26T20:39:48.933Z,95258.47
2023-04-26T20:42:15.948Z,95263.75
2023-04-26T20:44:42.618Z,95267.25
2023-04-26T20:47:09.234Z,95268.47
2023-04-26T20:49:35.870Z,95278.69
2023-04-26T20:52:02.410Z,95276.69
2023-04-26T20:54:28.933Z,95277.38
2023-04-26T20:56:55.483Z,95266.50
2023-04-26T20:59:23.082Z,95274.88
2023-04-26T21:01:50.540Z,95267.13
2023-04-26T21:04:17.256Z,95272.38
2023-04-26T21:06:43.907Z,95276.31
2023-04-26T21:09:11.397Z,95270.91
2023-04-26T21:11:38.208Z,95272.38
2023-04-26T21:14:05.321Z,95274.22
2023-04-26T21:16:31.926Z,95270.44
2023-04-26T21:18:58.438Z,95274.53
2023-04-26T21:21:27.697Z,95269.09
2023-04-26T21:23:54.776Z,95272.22
2023-04-26T21:26:21.393Z,95275.69
2023-04-26T21:28:48.623Z,95267.31
2023-04-26T21:31:15.482Z,95275.69
2023-04-26T21:33:42.841Z,95276.84
2023-04-26T21:36:09.441Z,95276.53
2023-04-26T21:38:36.075Z,95272.56
2023-04-26T21:41:02.593Z,95276.03
2023-04-26T21:43:29.145Z,95264.88
2023-04-26T21:45:57.706Z,95262.69
2023-04-26T21:48:24.925Z,95268.97
2023-04-26T21:50:51.624Z,95265.34
2023-04-26T21:53:18.572Z,95273.25
2023-04-26T21:55:50.831Z,95275.53
2023-04-26T21:58:17.477Z,95278.34
2023-04-26T22:00:44.134Z,95279.34
2023-04-26T22:03:10.825Z,95275.59
2023-04-26T22:05:37.564Z,95278.53
2023-04-26T22:08:04.354Z,95280.66
2023-04-26T22:10:30.984Z,95284.44
2023-04-26T22:12:57.547Z,95279.53
2023-04-26T22:15:24.145Z,95290.03
2023-04-26T22:17:50.775Z,95281.31
2023-04-26T22:20:17.382Z,95279.53
2023-04-26T22:22:43.961Z,95282.66
2023-04-26T22:25:10.508Z,95275.41
2023-04-26T22:27:37.015Z,95272.28
2023-04-26T22:30:16.214Z,95279.19
2023-04-26T22:32:53.442Z,95276.72
2023-04-26T22:35:20.391Z,95285.59
2023-04-26T22:37:47.365Z,95274.25
2023-04-26T22:40:15.155Z,95281.66
2023-04-26T22:42:42.702Z,95283.63
2023-04-26T22:45:10.774Z,95278.69
2023-04-26T22:47:37.514Z,95284.56
2023-04-26T22:50:05.247Z,95286.91
2023-04-26T22:52:32.389Z,95282.78
2023-04-26T22:55:02.482Z,95288.50
2023-04-26T22:57:29.891Z,95293.25
2023-04-26T22:59:56.579Z,95286.41
2023-04-26T23:02:23.476Z,95290.34
2023-04-26T23:04:50.144Z,95289.81
2023-04-26T23:07:16.762Z,95292.13
2023-04-26T23:09:43.367Z,95297.06
2023-04-26T23:12:09.946Z,95294.75
2023-04-26T23:14:37.663Z,95289.66
2023-04-26T23:17:04.437Z,95285.72
2023-04-26T23:19:31.446Z,95292.28
2023-04-26T23:21:57.957Z,95295.88
2023-04-26T23:24:24.484Z,95295.72
2023-04-26T23:26:51.155Z,95292.09
2023-04-26T23:29:17.652Z,95299.66
2023-04-26T23:31:44.216Z,95282.25
2023-04-26T23:34:10.876Z,95292.25
2023-04-26T23:36:37.430Z,95291.78
2023-04-26T23:39:04.006Z,95298.50
2023-04-26T23:41:30.901Z,95289.28
2023-04-26T23:43:57.449Z,95290.28
2023-04-26T23:46:24.023Z,95286.03
2023-04-26T23:48:50.712Z,95282.06
2023-04-26T23:51:17.252Z,95279.72
2023-04-26T23:53:44.801Z,95280.84
2023-04-26T23:56:11.435Z,95282.03
2023-04-26T23:58:37.970Z,95281.03
